Caleta Olivia, Argentina
Current Conditions -  °F | °C
As of 7:00 AM on Thursday 29 Jan 2015 (Local Time) from SAVC Reporting Station
Clear Clear  
Wind Chill: 63°   Ceiling: Unl
Heat Index: 63°   Visibility: 6mi
Dew Point: 45°   Wind: 9mph
Humidity: 52%   Direction: 270°W
Pressure: 30"   Gusts: NA
Location:  46.43°S, 67.53°W
Report Text: SAVC 291000Z 27008KT CAVOK 17/07 Q1016
Loading
Personal Weather Stations






























Interactive Weather Map New forecast layout! Learn more

10-Day Weather Forecast

Advertisements
Track Severe Weather on mobile